Flight Track Log - Related Links

Times and Time Zones

All times are in EDT time to prevent confusion due to time zone crossing. See the UAL4234 flight status page for this flight to view local times or setup timezone preferences in your user account.

Time Position Orientation Groundspeed Altitude Reporting Facility
EDT Latitude Longitude Course Direction KTS MPH feet Rate Location/Type
Tue 04:58:03 PM 29.9614 -95.3411 107° East 153 176 700  Level Houston Center
Tue 04:59:21 PM 29.9444 -95.2764 107° East 205 236 2,500 1,898 Climbing Houston Center
Tue 04:59:41 PM 29.9369 -95.2333 101° East 256 295 3,800 1,452 Climbing Houston Center
Tue 05:00:23 PM 29.9283 -95.1775 100° East 261 300 4,000 750 Climbing Houston Center
Tue 05:01:25 PM 29.9219 -95.0892 95° East 273 314 5,100 1,790 Climbing Houston Center
Tue 05:02:27 PM 29.9150 -95.0011 95° East 275 316 7,700 2,274 Climbing Houston Center
Tue 05:03:29 PM 29.9075 -94.9053 95° East 294 338 9,800 2,032 Climbing Houston Center
Tue 05:04:31 PM 29.9000 -94.8039 95° East 306 352 11,900 1,790 Climbing Houston Center
Tue 05:05:33 PM 29.8922 -94.7031 95° East 320 368 13,500 1,296 Climbing Houston Center
Tue 05:06:36 PM 29.8844 -94.5894 94° East 344 396 14,600 1,248 Climbing Houston Center
Tue 05:07:38 PM 29.8711 -94.4458 96° East 370 426 16,100 1,355 Climbing Houston Center
Tue 05:08:40 PM 29.8614 -94.3222 95° East 384 442 17,400 1,258 Climbing Houston Center
Tue 05:09:42 PM 29.8561 -94.1947 93° East 396 456 18,700 1,258 Climbing Houston Center
Tue 05:10:44 PM 29.8531 -94.0653 92° East 402 463 20,000 1,161 Climbing Houston Center
Tue 05:11:46 PM 29.8625 -93.9322 85° East 415 478 21,100 1,065 Climbing Houston Center
Tue 05:12:48 PM 29.8775 -93.7989 83° East 420 483 22,200 1,161 Climbing Houston Center
Tue 05:13:50 PM 29.8950 -93.6344 83° East 429 494 23,500 1,161 Climbing Houston Center
Tue 05:14:52 PM 29.9094 -93.4964 83° East 433 498 24,600 1,056 Climbing Houston Center
Tue 05:15:55 PM 29.9236 -93.3569 83° East 437 503 25,700 1,104 Climbing Houston Center
Tue 05:16:57 PM 29.9411 -93.2064 82° East 437 503 26,900 1,065 Climbing Houston Center
Tue 05:17:59 PM 29.9544 -93.0650 84° East 442 509 27,900 1,016 Climbing Houston Center
Tue 05:19:01 PM 29.9692 -92.9233 83° East 446 513 29,000 1,065 Climbing Houston Center
Tue 05:20:03 PM 29.9800 -92.7811 85° East 447 514 30,100 1,161 Climbing Houston Center
Tue 05:21:05 PM 29.9944 -92.6078 84° East 453 521 31,400 1,152 Climbing Houston Center
Tue 05:22:08 PM 30.0058 -92.4633 85° East 454 522 32,500 1,016 Climbing Houston Center
Tue 05:23:09 PM 30.0164 -92.3164 85° East 459 528 33,500 1,016 Climbing Houston Center
Tue 05:24:12 PM 30.0283 -92.1697 85° East 462 532 34,600 720 Climbing Houston Center
Tue 05:25:14 PM 30.0394 -92.0239 85° East 460 529 35,000 629 Climbing Houston Center
Tue 05:26:16 PM 30.0544 -91.8389 85° East 481 554 35,900 968 Climbing Houston Center
Tue 05:27:18 PM 30.0661 -91.6878 85° East 466 536 37,000 532 Climbing Houston Center
Tue 05:28:20 PM 30.0772 -91.5369 85° East 470 541 37,000  Level Houston Center
Tue 05:29:22 PM 30.0875 -91.3794 86° East 491 565 37,000 -48 Level Houston Center
Tue 05:30:24 PM 30.0989 -91.2183 85° East 504 580 36,900  Descending Houston Center
Tue 05:31:26 PM 30.1097 -91.0544 86° East 510 587 37,000 48 Climbing Houston Center
Tue 05:32:29 PM 30.1311 -90.8897 81° East 521 600 37,000  Level Houston Center
Tue 05:33:31 PM 30.1806 -90.6978 73° East 524 603 37,000  Level Houston Center
Tue 05:34:33 PM 30.2183 -90.5364 75° East 522 601 37,000  Level Houston Center
Tue 05:35:35 PM 30.2586 -90.3750 74° East 524 603 37,000  Level Houston Center
Tue 05:36:37 PM 30.2964 -90.2133 75° East 523 602 37,000  Level Houston Center
Tue 05:37:39 PM 30.3356 -90.0522 74° East 521 600 37,000  Level Houston Center
Tue 05:38:41 PM 30.3731 -89.8886 75° East 518 596 37,000  Level Houston Center
Tue 05:39:43 PM 30.4200 -89.6933 74° East 524 603 37,000  Level Houston Center
Tue 05:40:46 PM 30.4539 -89.5497 75° East 527 606 37,000  Level Houston Center
Tue 05:41:48 PM 30.4997 -89.3558 75° East 522 601 37,000  Level Houston Center
Tue 05:42:50 PM 30.5567 -89.2028 67° East 523 602 37,000  Level Houston Center
Tue 05:43:52 PM 30.6378 -89.0678 55° Northeast 512 589 37,000  Level Houston Center
Tue 05:44:54 PM 30.7275 -88.9142 56° Northeast 512 589 37,000  Level Houston Center
Tue 05:45:56 PM 30.8083 -88.7792 55° Northeast 511 588 37,000  Level Houston Center
Tue 05:46:58 PM 30.8894 -88.6419 55° Northeast 513 590 37,000  Level Houston Center
Tue 05:48:01 PM 30.9775 -88.4950 55° Northeast 516 594 37,000  Level Houston Center
Tue 05:49:03 PM 31.0597 -88.3564 55° Northeast 519 597 37,000  Level Houston Center
Tue 05:50:05 PM 31.1403 -88.2158 56° Northeast 529 609 37,000  Level Houston Center
Tue 05:51:07 PM 31.2217 -88.0783 55° Northeast 516 594 37,000  Level Houston Center
Tue 05:52:09 PM 31.3025 -87.9422 55° Northeast 500 575 37,000  Level Houston Center
Tue 05:53:11 PM 31.3814 -87.8044 56° Northeast 508 585 37,000  Level Houston Center
Tue 05:54:17 PM 31.4769 -87.6425 55° Northeast 504 580 37,000  Level Atlanta Center
Tue 05:55:17 PM 31.5583 -87.5042 55° Northeast 510 587 37,000  Level Atlanta Center
Tue 05:56:17 PM 31.6392 -87.3636 56° Northeast 510 587 37,000  Level Atlanta Center
Tue 05:57:17 PM 31.7139 -87.2247 58° Northeast 510 587 37,000  Level Atlanta Center
Tue 05:58:17 PM 31.7925 -87.0833 57° Northeast 505 581 37,000  Level Atlanta Center
Tue 05:59:17 PM 31.8711 -86.9467 56° Northeast 505 581 37,000  Level Atlanta Center
Tue 06:00:17 PM 31.9472 -86.8094 57° Northeast 505 581 37,000  Level Atlanta Center
Tue 06:01:17 PM 32.0317 -86.6725 54° Northeast 505 581 37,000  Level Atlanta Center
Tue 06:02:17 PM 32.1075 -86.5350 57° Northeast 505 581 37,000  Level Atlanta Center
Tue 06:03:17 PM 32.1583 -86.3867 68° East 499 574 37,000  Level Atlanta Center
Tue 06:04:17 PM 32.2242 -86.2167 65° Northeast 486 559 37,000  Level Atlanta Center
Tue 06:05:17 PM 32.2686 -86.0581 72° East 506 582 37,000  Level Atlanta Center
Tue 06:06:17 PM 32.3211 -85.9019 68° East 506 582 37,000  Level Atlanta Center
Tue 06:07:17 PM 32.3778 -85.7408 67° East 506 582 37,000  Level Atlanta Center
Tue 06:08:17 PM 32.4319 -85.5867 67° East 512 589 37,000  Level Atlanta Center
Tue 06:09:17 PM 32.4839 -85.4325 68° East 507 583 37,000  Level Atlanta Center
Tue 06:10:17 PM 32.5356 -85.2781 68° East 507 583 37,000  Level Atlanta Center
Tue 06:11:17 PM 32.5914 -85.1236 67° East 507 583 37,000  Level Atlanta Center
Tue 06:12:17 PM 32.6344 -84.9639 72° East 507 583 37,000  Level Atlanta Center
Tue 06:13:17 PM 32.6875 -84.8164 67° East 501 577 37,000  Level Atlanta Center
Tue 06:14:17 PM 32.7386 -84.6586 69° East 501 577 37,000  Level Atlanta Center
Tue 06:15:17 PM 32.7936 -84.5008 67° East 501 577 37,000  Level Atlanta Center
Tue 06:16:17 PM 32.8378 -84.3578 70° East 507 583 37,000  Level Atlanta Center
Tue 06:17:17 PM 32.8944 -84.1872 68° East 507 583 37,000  Level Atlanta Center
Tue 06:18:17 PM 32.9447 -84.0314 69° East 507 583 37,000  Level Atlanta Center
Tue 06:19:17 PM 32.9967 -83.8703 69° East 507 583 37,000  Level Atlanta Center
Tue 06:20:17 PM 33.0444 -83.7167 70° East 502 578 37,000  Level Atlanta Center
Tue 06:21:17 PM 33.0900 -83.5728 69° East 509 586 37,000  Level Atlanta Center
Tue 06:22:17 PM 33.1394 -83.4161 69° East 509 586 37,000  Level Atlanta Center
Tue 06:23:17 PM 33.1947 -83.2444 69° East 509 586 37,000  Level Atlanta Center
Tue 06:24:17 PM 33.2314 -83.1175 71° East 509 586 37,000  Level Atlanta Center
Tue 06:25:17 PM 33.2944 -82.9278 68° East 504 580 37,000 -550 Level Atlanta Center
Tue 06:26:17 PM 33.3411 -82.7706 70° East 494 568 35,900 -1,000 Descending Atlanta Center
Tue 06:27:17 PM 33.3894 -82.6206 69° East 488 562 35,000 -700 Descending Atlanta Center
Tue 06:28:17 PM 33.4356 -82.4706 70° East 481 554 34,500 -1,000 Descending Atlanta Center
Tue 06:29:17 PM 33.4797 -82.3278 70° East 469 540 33,000 -750 Descending Atlanta Center
Tue 06:30:17 PM 33.5192 -82.1800 72° East 458 527 33,000  Level Atlanta Center
Tue 06:32:32 PM 33.6256 -81.8525 69° East 481 554 33,000  Level Jacksonville Center
Tue 06:33:31 PM 33.7058 -81.7242 53° Northeast 465 535 33,000  Level Jacksonville Center
Tue 06:34:32 PM 33.7819 -81.6108 51° Northeast 474 545 33,000  Level Jacksonville Center
Tue 06:35:31 PM 33.8642 -81.4869 51° Northeast 474 545 33,000  Level Jacksonville Center
Tue 06:36:32 PM 33.9439 -81.3631 52° Northeast 474 545 33,000 -450 Level Jacksonville Center
Tue 06:37:31 PM 34.0300 -81.2361 51° Northeast 474 545 32,100 -1,412 Descending Jacksonville Center
Tue 06:38:31 PM 34.1117 -81.1092 52° Northeast 474 545 30,200 -1,600 Descending Jacksonville Center
Tue 06:39:31 PM 34.1956 -80.9819 51° Northeast 482 555 28,900 -600 Descending Jacksonville Center
Tue 06:40:31 PM 34.2769 -80.8572 52° Northeast 476 548 29,000 -900 Climbing Jacksonville Center
Tue 06:41:31 PM 34.3622 -80.7217 53° Northeast 476 548 27,100 -1,800 Descending Jacksonville Center
Tue 06:42:31 PM 34.4394 -80.6067 51° Northeast 477 549 25,400 -1,138 Descending Jacksonville Center
Tue 06:44:46 PM 34.6186 -80.3189 53° Northeast 467 537 23,400 -738 Descending Washington Center
Tue 06:45:46 PM 34.6944 -80.1994 52° Northeast 447 514 23,000 -200 Descending Washington Center
Tue 06:46:46 PM 34.7764 -80.0750 51° Northeast 452 520 23,000  Level Washington Center
Tue 06:47:46 PM 34.8678 -79.9711 43° Northeast 452 520 23,000  Level Washington Center
Tue 06:48:46 PM 34.9614 -79.8647 43° Northeast 452 520 23,000 -150 Level Washington Center
Tue 06:49:46 PM 35.0567 -79.7633 41° Northeast 452 520 22,700 -1,000 Descending Washington Center
Tue 06:50:46 PM 35.1433 -79.6686 42° Northeast 434 499 21,000 -1,636 Descending Washington Center
Tue 06:51:47 PM 35.2256 -79.5864 39° Northeast 373 429 19,400 -2,110 Descending Washington Center
Tue 06:52:17 PM 35.2661 -79.5556 32° Northeast 367 422 17,800 -3,051 Descending Washington Center
Tue 06:52:46 PM 35.3133 -79.5222 30° Northeast 373 429 16,400 -3,000 Descending Washington Center
Tue 06:53:11 PM 35.3536 -79.4986 26° Northeast 374 430 15,100 -2,600 Descending Washington Center
Tue 06:53:46 PM 35.4028 -79.4603 32° Northeast 368 423 13,800 -2,149 Descending Washington Center
Tue 06:54:18 PM 35.4519 -79.4294 27° Northeast 354 407 12,700 -1,600 Descending Washington Center
Tue 06:54:46 PM 35.4819 -79.4053 33° Northeast 335 386 12,200 -1,227 Descending Washington Center
Tue 06:55:46 PM 35.5383 -79.3342 46° Northeast 299 344 10,900 -1,515 Descending Washington Center
Tue 06:56:25 PM 35.5669 -79.2869 53° Northeast 268 308 9,700 -2,100 Descending Washington Center
Tue 06:56:46 PM 35.5825 -79.2594 55° Northeast 275 316 8,800 -2,093 Descending Washington Center
Tue 06:57:08 PM 35.5939 -79.2294 65° Northeast 278 320 8,200 -1,700 Descending Washington Center
Tue 06:57:46 PM 35.6247 -79.1719 57° Northeast 289 333 7,100 -1,574 Descending Washington Center
Tue 06:58:09 PM 35.6403 -79.1419 57° Northeast 287 330 6,600 -1,000 Descending Washington Center
Tue 06:58:46 PM 35.6644 -79.0944 58° Northeast 282 325 6,100 -1,068 Descending Washington Center
Tue 06:59:22 PM 35.6844 -79.0544 58° Northeast 260 299 5,300 -1,400 Descending Washington Center
Tue 06:59:46 PM 35.7042 -79.0194 55° Northeast 263 303 4,700 -1,400 Descending Washington Center
Tue 07:00:22 PM 35.7303 -78.9822 49° Northeast 244 281 3,900 -1,200 Descending Washington Center
Tue 07:00:46 PM 35.7478 -78.9575 49° Northeast 252 290 3,500 -787 Descending Washington Center
Tue 07:01:23 PM 35.7736 -78.9278 43° Northeast 220 253 3,100 -649 Descending Washington Center

Login

Don't have an account? Register now (free) for customized features, flight alerts, and more!